M I D A S
Marine Information and Data Acquisition System
Tripno 1680 of the Zeeleeuw from 2009-04-23 11:40:05 to 2009-04-23 13:59:39
Back to CruiseResearch ActivitiesStationsMapUnderway DataData graphs

EquipmentUnitsComment
TimeDGPSUTC
LatitudeDGPSDM.mWGS84
LongitudeDGPSDM.mWGS84
HeadingGyrodeg 
SOGDGPSknotsSpeed over ground
COGDGPSdegCourse over ground
DepthEcho soundermeters200 kHz
Missing or incorrect values are displayed as -999
Navigation data collected by the RV Zeeleeuw from 2009-04-23 07:44:55 to 2009-04-23 14:07:14
Time Latitude Longitude Heading SOG COG Depth
2009-04-23 07:46:03 51°13.678 2°55.898 108.6 2.8 289 -999
2009-04-23 07:47:03 51°13.69 2°55.821 95.5 3 278 -999
2009-04-23 07:48:02 51°13.693 2°55.759 83.4 1.4 273 12
2009-04-23 07:49:00 51°13.704 2°55.761 31.3 0.5 18 12.1
2009-04-23 07:50:00 51°13.716 2°55.754 342.7 2.7 338 11.8
2009-04-23 07:51:00 51°13.787 2°55.674 328 6.8 326 -999
2009-04-23 07:51:59 51°13.895 2°55.58 335.3 7.9 335 10.1
2009-04-23 07:52:59 51°14.021 2°55.489 337.7 8.6 336 9.8
2009-04-23 07:54:00 51°14.156 2°55.387 333.2 9 331 10.1
2009-04-23 07:55:00 51°14.271 2°55.239 314.7 9.1 313 10.1
2009-04-23 07:56:00 51°14.367 2°55.043 304.8 9.8 303 10
2009-04-23 07:56:59 51°14.443 2°54.804 294 11 293 10.3
2009-04-23 07:58:00 51°14.522 2°54.537 300.6 10 297 10.4
2009-04-23 07:59:00 51°14.582 2°54.364 305.9 6.5 299 10.6
2009-04-23 08:00:00 51°14.643 2°54.165 301.9 9.9 296 10.6
2009-04-23 08:01:00 51°14.726 2°53.899 300.9 11.9 296 10.2
2009-04-23 08:01:59 51°14.814 2°53.618 302.1 12.1 297 10
2009-04-23 08:03:00 51°14.904 2°53.327 299.9 12 295 9.8
2009-04-23 08:04:00 51°14.988 2°53.035 299.4 12.1 295 10.1
2009-04-23 08:05:00 51°15.073 2°52.743 301.1 12.2 296 10.3
2009-04-23 08:05:59 51°15.157 2°52.453 299.7 12.2 294 10.5
2009-04-23 08:07:00 51°15.241 2°52.152 297.7 12.2 292 11.1
2009-04-23 08:07:59 51°15.322 2°51.86 297.9 12.2 291 11.7
2009-04-23 08:09:00 51°15.331 2°51.536 261.3 12.4 258 12.1
2009-04-23 08:10:00 51°15.264 2°51.23 250.4 11.2 247 12.3
2009-04-23 08:11:00 51°15.21 2°51.033 246.3 6.3 244 12.5
2009-04-23 08:12:00 51°15.163 2°50.922 230.3 4.3 232 12.5
2009-04-23 08:12:59 51°15.12 2°50.858 209.8 3.2 216 12.5
2009-04-23 08:14:00 51°15.078 2°50.824 188.8 2.7 200 12.4
2009-04-23 08:14:59 51°15.036 2°50.801 184.1 2.6 198 12.5
2009-04-23 08:16:00 51°14.994 2°50.783 180.1 2.8 194 12.3
2009-04-23 08:17:00 51°14.939 2°50.76 190.2 3.8 198 12.2
2009-04-23 08:18:00 51°14.878 2°50.717 202 4.1 208 12.1
2009-04-23 08:19:00 51°14.821 2°50.656 215.1 4.1 218 12
2009-04-23 08:20:00 51°14.773 2°50.586 221.8 3.9 223 12.1
2009-04-23 08:21:00 51°14.73 2°50.514 226.5 3.6 228 12
2009-04-23 08:22:00 51°14.69 2°50.445 225.1 3.5 227 11.9
2009-04-23 08:23:00 51°14.65 2°50.377 225.8 3.5 227 11.9
2009-04-23 08:24:00 51°14.612 2°50.308 226.2 3.4 227 11.9
2009-04-23 08:25:00 51°14.573 2°50.24 225.3 3.4 227 11.8
2009-04-23 08:26:00 51°14.534 2°50.172 225.1 3.5 228 11.7
2009-04-23 08:27:00 51°14.496 2°50.104 231.4 3.4 231 11.6
2009-04-23 08:28:00 51°14.464 2°50.03 235.8 3.4 236 11.6
2009-04-23 08:29:00 51°14.431 2°49.95 235.6 3.7 235 11.6
2009-04-23 08:30:00 51°14.396 2°49.868 235.4 3.8 237 11.6
2009-04-23 08:30:59 51°14.361 2°49.785 235.9 3.8 237 11.7
2009-04-23 08:32:00 51°14.326 2°49.701 235.2 3.8 235 11.7
2009-04-23 08:33:00 51°14.29 2°49.618 234.5 3.8 236 11.6
2009-04-23 08:34:00 51°14.254 2°49.535 234.5 3.8 235 11.6
2009-04-23 08:35:00 51°14.219 2°49.453 234.4 3.8 235 11.6
2009-04-23 08:36:00 51°14.183 2°49.371 233.9 3.7 234 11.5
2009-04-23 08:37:00 51°14.147 2°49.29 233.8 3.7 235 11.5
2009-04-23 08:38:00 51°14.114 2°49.207 239.8 3.7 240 11.6
2009-04-23 08:39:00 51°14.082 2°49.123 239.6 3.6 240 11.5
2009-04-23 08:40:00 51°14.052 2°49.039 239.7 3.6 240 11.6
2009-04-23 08:41:00 51°14.021 2°48.957 239.6 3.6 239 11.6
2009-04-23 08:42:00 51°13.99 2°48.876 239.6 3.6 238 11.6
2009-04-23 08:43:00 51°13.96 2°48.797 239.2 3.5 239 11.7
2009-04-23 08:44:00 51°13.93 2°48.717 239.4 3.5 238 11.7
2009-04-23 08:45:00 51°13.9 2°48.637 239.7 3.5 238 11.7
2009-04-23 08:46:00 51°13.871 2°48.558 239.8 3.5 240 11.9
2009-04-23 08:47:00 51°13.841 2°48.479 238.9 3.5 239 11.8
2009-04-23 08:48:00 51°13.812 2°48.399 239.7 3.5 241 11.9
2009-04-23 08:49:00 51°13.786 2°48.32 243.6 3.3 244 11.9
2009-04-23 08:50:00 51°13.766 2°48.242 248 3.2 249 11.9
2009-04-23 08:51:00 51°13.75 2°48.161 257.5 3.3 256 12.1
2009-04-23 08:52:00 51°13.742 2°48.086 264.4 2.6 264 12
2009-04-23 08:53:00 51°13.738 2°48.023 265.5 2.2 264 12.2
2009-04-23 08:54:00 51°13.734 2°47.97 263.9 1.8 261 12.2
2009-04-23 08:55:00 51°13.73 2°47.93 258.2 1.3 257 12.2
2009-04-23 08:56:00 51°13.726 2°47.89 263.2 2.2 266 12.3
2009-04-23 08:57:00 51°13.751 2°47.83 330.1 3.5 333 12.5
2009-04-23 08:58:00 51°13.844 2°47.857 16.8 8.4 15 12.5
2009-04-23 08:59:00 51°14.01 2°47.932 18.4 11.6 17 12.4
2009-04-23 09:00:00 51°14.194 2°48.048 24.8 12.1 24 12.6
2009-04-23 09:01:00 51°14.378 2°48.179 24.7 12.1 24 12.7
2009-04-23 09:02:00 51°14.561 2°48.318 26.9 12.3 24 12.9
2009-04-23 09:03:00 51°14.749 2°48.444 24.1 12.3 23 13.1
2009-04-23 09:04:00 51°14.937 2°48.571 24.4 12.3 24 13.5
2009-04-23 09:05:00 51°15.118 2°48.699 24.7 11.1 24 14
2009-04-23 09:06:00 51°15.28 2°48.821 25.3 10.7 25 14.3
2009-04-23 09:07:00 51°15.437 2°48.943 23.7 10.4 25 13.8
2009-04-23 09:08:00 51°15.591 2°49.066 30 10.2 36 12.3
2009-04-23 09:09:00 51°15.728 2°49.266 41.9 12 44 11.9
2009-04-23 09:10:00 51°15.881 2°49.464 32.2 11.2 35 11.8
2009-04-23 09:11:00 51°16.023 2°49.58 20.8 8.6 24 12.2
2009-04-23 09:12:00 51°16.15 2°49.667 19.6 8.3 23 12.6
2009-04-23 09:13:00 51°16.276 2°49.757 22.2 8.3 27 12.6
2009-04-23 09:14:00 51°16.385 2°49.878 17.9 7.7 24 12.6
2009-04-23 09:15:00 51°16.441 2°50.003 87 6 96 12.5
2009-04-23 09:16:00 51°16.376 2°50.084 186.6 5 182 12.4
2009-04-23 09:17:00 51°16.283 2°50 227.5 7.3 226 12.4
2009-04-23 09:18:00 51°16.299 2°49.87 331 5.6 345 12.7
2009-04-23 09:19:00 51°16.362 2°49.975 85.6 6.7 92 12.5
2009-04-23 09:20:00 51°16.28 2°50.075 175.8 7.3 170 12.4
2009-04-23 09:21:00 51°16.147 2°50.111 172.7 8.6 167 12.1
2009-04-23 09:22:00 51°16.061 2°50.168 150.8 2.3 133 11.7
2009-04-23 09:23:00 51°16.056 2°50.191 131.9 0.8 98 11.7
2009-04-23 09:24:00 51°16.054 2°50.212 134.5 0.8 96 4.6
2009-04-23 09:25:03 51°16.053 2°50.236 140.2 0.9 95 -999
2009-04-23 09:26:03 51°16.051 2°50.26 144.3 0.9 99 -999
2009-04-23 09:27:03 51°16.049 2°50.286 147.8 1 98 11.8
2009-04-23 09:28:00 51°16.046 2°50.31 153.1 1 100 11.8
2009-04-23 09:29:00 51°16.043 2°50.335 160.5 0.9 103 11.9
2009-04-23 09:30:00 51°16.04 2°50.359 169.5 1 102 12
2009-04-23 09:31:00 51°16.036 2°50.385 176.1 1 102 12.1
2009-04-23 09:32:00 51°16.027 2°50.412 179.4 1.4 131 12.2
2009-04-23 09:33:00 51°16.007 2°50.44 176.8 1.8 140 12.6
2009-04-23 09:34:00 51°15.98 2°50.473 172 2.2 143 13
2009-04-23 09:35:00 51°15.945 2°50.514 164.9 3.2 144 13.9
2009-04-23 09:36:00 51°15.897 2°50.58 148.1 4.3 134 14.7
2009-04-23 09:37:00 51°15.854 2°50.685 128.7 5.1 117 14.9
2009-04-23 09:38:00 51°15.817 2°50.811 125.9 5.4 114 15
2009-04-23 09:39:00 51°15.777 2°50.94 127.7 5.4 116 14.9
2009-04-23 09:40:00 51°15.739 2°51.07 127.1 5.5 115 14.9
2009-04-23 09:41:00 51°15.699 2°51.201 127.2 5.4 115 15
2009-04-23 09:42:00 51°15.661 2°51.33 127.6 5.3 115 14.8
2009-04-23 09:43:00 51°15.626 2°51.459 126.8 5.3 112 14.7
2009-04-23 09:44:00 51°15.597 2°51.587 117.6 5.2 104 14.7
2009-04-23 09:45:00 51°15.583 2°51.725 106.7 5.4 96 14.6
2009-04-23 09:46:00 51°15.576 2°51.868 105.4 5.5 94 14.4
2009-04-23 09:47:00 51°15.567 2°52.011 107.4 5.4 96 14.3
2009-04-23 09:48:00 51°15.557 2°52.155 107.5 5.5 96 14.1
2009-04-23 09:49:00 51°15.548 2°52.3 107.5 5.5 96 14
2009-04-23 09:50:00 51°15.539 2°52.445 108 5.5 96 13.7
2009-04-23 09:51:00 51°15.528 2°52.59 108.4 5.5 96 13.7
2009-04-23 09:51:59 51°15.519 2°52.733 108.4 5.5 97 13.6
2009-04-23 09:52:59 51°15.509 2°52.878 108.9 5.6 96 13.4
2009-04-23 09:53:59 51°15.5 2°53.025 108.7 5.5 97 13.5
2009-04-23 09:54:59 51°15.49 2°53.17 111.1 5.5 99 13.3
2009-04-23 09:55:59 51°15.469 2°53.306 125.9 5.1 109 12.9
2009-04-23 09:57:00 51°15.436 2°53.429 131.2 5 114 13.1
2009-04-23 09:58:00 51°15.404 2°53.552 128.6 5.1 112 12.8
2009-04-23 09:58:59 51°15.374 2°53.676 127.4 5.1 111 12.4
2009-04-23 09:59:59 51°15.345 2°53.801 127.4 4.8 111 12.3
2009-04-23 10:01:00 51°15.318 2°53.918 130.2 4.4 110 12
2009-04-23 10:02:00 51°15.282 2°54.028 148.4 4.9 131 12.9
2009-04-23 10:02:59 51°15.216 2°54.126 154.1 6.1 139 13.3
2009-04-23 10:03:59 51°15.132 2°54.232 156.5 6.5 143 13.2
2009-04-23 10:05:00 51°15.046 2°54.338 157.6 6.4 143 13
2009-04-23 10:05:59 51°14.958 2°54.441 157.9 6.8 143 12.9
2009-04-23 10:07:00 51°14.865 2°54.549 159 6.8 143 12.4
2009-04-23 10:07:59 51°14.776 2°54.652 159.2 6.8 144 12.2
2009-04-23 10:08:59 51°14.684 2°54.758 161.3 6.8 145 12.3
2009-04-23 10:10:00 51°14.588 2°54.859 163.2 6.7 147 12.3
2009-04-23 10:10:59 51°14.494 2°54.96 160.9 7 145 12.8
2009-04-23 10:12:00 51°14.398 2°55.076 152.5 7.3 139 13.1
2009-04-23 10:12:59 51°14.307 2°55.193 137.3 7.2 137 13.1
2009-04-23 10:13:59 51°14.22 2°55.317 140.2 6.6 141 13.1
2009-04-23 10:15:00 51°14.127 2°55.411 152.5 6.6 153 13
2009-04-23 10:16:00 51°14.027 2°55.485 155.6 6.6 156 13
2009-04-23 10:16:59 51°13.928 2°55.556 155.9 6.7 155 13.1
2009-04-23 10:17:59 51°13.827 2°55.63 154.4 6.5 154 12.7
2009-04-23 10:19:00 51°13.752 2°55.724 132.9 5 132 12.5
2009-04-23 10:20:00 51°13.707 2°55.816 122.5 4 122 11.2
2009-04-23 10:21:00 51°13.679 2°55.902 116 3.4 114 9.4
2009-04-23 10:22:00 51°13.665 2°55.953 122.1 0.9 115 7.9
2009-04-23 10:22:59 51°13.662 2°55.958 126.6 -999 340 -999
2009-04-23 10:24:00 51°13.663 2°55.959 129.3 0.1 72 8.1
2009-04-23 10:24:59 51°13.662 2°55.958 127.5 -999 282 8.1
2009-04-23 10:26:00 51°13.662 2°55.958 126.8 -999 152 8.1
2009-04-23 10:27:00 51°13.662 2°55.958 126.4 -999 295 8.1
2009-04-23 10:27:59 51°13.662 2°55.958 126.4 -999 307 8
2009-04-23 10:28:59 51°13.662 2°55.959 126.4 -999 177 8.1
2009-04-23 10:30:00 51°13.663 2°55.96 126.5 -999 340 8.1
2009-04-23 10:31:00 51°13.663 2°55.959 126.5 -999 292 8.1
2009-04-23 10:32:01 51°13.663 2°55.96 126.5 -999 271 -999
2009-04-23 10:33:00 51°13.663 2°55.96 126.6 -999 255 8.1
2009-04-23 10:34:00 51°13.664 2°55.961 126.5 -999 277 8.1
2009-04-23 10:35:00 51°13.663 2°55.959 126.4 -999 196 8.1
2009-04-23 10:35:59 51°13.662 2°55.959 126.4 -999 291 8.1
2009-04-23 10:37:00 51°13.663 2°55.961 126.4 -999 293 8.1
2009-04-23 10:37:59 51°13.663 2°55.961 126.3 -999 11 8.1
2009-04-23 10:39:00 51°13.664 2°55.962 126.3 -999 146 8.1
2009-04-23 10:40:01 51°13.664 2°55.962 126.3 -999 239 8.1
2009-04-23 10:40:59 51°13.664 2°55.961 126.1 -999 297 8.1
2009-04-23 10:42:00 51°13.663 2°55.959 126.1 -999 149 8.1
2009-04-23 10:43:00 51°13.663 2°55.96 126 -999 319 8.1
2009-04-23 10:44:00 51°13.663 2°55.96 126 -999 171 8.1
2009-04-23 10:45:00 51°13.663 2°55.96 126 -999 191 8.1
2009-04-23 10:45:59 51°13.663 2°55.96 126 -999 159 8.1
2009-04-23 10:47:01 51°13.663 2°55.961 126 -999 232 8.1
2009-04-23 10:48:00 51°13.664 2°55.961 126.1 -999 130 8.1
2009-04-23 10:49:03 51°13.663 2°55.961 126.1 -999 193 -999
2009-04-23 10:50:03 51°13.663 2°55.96 126 -999 172 8.2
2009-04-23 10:51:03 51°13.664 2°55.96 126.1 -999 201 8.1
2009-04-23 10:52:03 51°13.664 2°55.96 126 -999 187 8.1
2009-04-23 10:53:01 51°13.663 2°55.96 126 -999 226 8.1
2009-04-23 10:54:00 51°13.663 2°55.959 126 -999 171 8.2
2009-04-23 10:55:00 51°13.662 2°55.959 126.1 -999 165 8.1
2009-04-23 10:56:00 51°13.662 2°55.959 126.1 -999 198 8.1
2009-04-23 10:57:00 51°13.663 2°55.959 126.2 -999 194 8.1
2009-04-23 10:58:00 51°13.663 2°55.959 126.2 -999 172 8.1
2009-04-23 10:59:00 51°13.663 2°55.959 126.3 -999 211 8.1
2009-04-23 11:00:00 51°13.663 2°55.959 126.3 -999 175 8.2
2009-04-23 11:01:01 51°13.664 2°55.959 126.4 -999 204 8.2
2009-04-23 11:02:02 51°13.664 2°55.96 126.4 -999 217 -999
2009-04-23 11:03:00 51°13.664 2°55.96 126.4 -999 221 8.1
2009-04-23 11:04:00 51°13.663 2°55.959 126.4 -999 270 8.1
2009-04-23 11:05:00 51°13.662 2°55.958 126.4 -999 92 8.1
2009-04-23 11:06:00 51°13.663 2°55.959 126.4 -999 192 8.1
2009-04-23 11:07:00 51°13.663 2°55.959 126.4 -999 225 8.1
2009-04-23 11:08:00 51°13.662 2°55.959 126.6 -999 184 8.2
2009-04-23 11:08:59 51°13.662 2°55.959 127 -999 68 8.1
2009-04-23 11:10:00 51°13.663 2°55.959 127.1 -999 355 8.1
2009-04-23 11:11:00 51°13.662 2°55.959 126.6 -999 131 8.1
2009-04-23 11:11:59 51°13.662 2°55.959 126.7 -999 175 8.1
2009-04-23 11:13:01 51°13.662 2°55.959 126.9 -999 183 -999
2009-04-23 11:14:03 51°13.662 2°55.959 127 -999 229 8.1
2009-04-23 11:15:03 51°13.663 2°55.959 127 -999 214 8.1
2009-04-23 11:16:02 51°13.663 2°55.959 127.1 -999 84 8.1
2009-04-23 11:17:03 51°13.662 2°55.959 127.1 -999 220 -999
2009-04-23 11:18:02 51°13.663 2°55.959 126.8 -999 230 8.1
2009-04-23 11:19:00 51°13.663 2°55.959 126.8 -999 189 8.1
2009-04-23 11:20:00 51°13.663 2°55.96 127.7 -999 110 8.1
2009-04-23 11:21:00 51°13.663 2°55.959 127.8 -999 241 8.1
2009-04-23 11:22:00 51°13.662 2°55.96 122.2 0.1 182 8.2
2009-04-23 11:23:00 51°13.663 2°55.956 115.2 0.7 294 8.1
2009-04-23 11:24:04 51°13.68 2°55.899 116.2 3.2 295 -999
2009-04-23 11:25:04 51°13.705 2°55.824 125.7 3.4 303 -999
2009-04-23 11:26:04 51°13.741 2°55.747 132.5 3.8 308 -999
2009-04-23 11:27:04 51°13.792 2°55.678 149.1 4 327 -999
2009-04-23 11:28:04 51°13.853 2°55.627 161.9 3.9 338 -999
2009-04-23 11:29:03 51°13.901 2°55.611 184.8 2.4 358 13.2
2009-04-23 11:30:02 51°13.928 2°55.617 209.7 0.7 12 13.1
2009-04-23 11:31:00 51°13.928 2°55.612 252.6 0.5 75 13.1
2009-04-23 11:32:00 51°13.934 2°55.592 303.6 2.2 301 13.2
2009-04-23 11:33:00 51°13.99 2°55.534 334.7 5.6 331 13.2
2009-04-23 11:33:59 51°14.084 2°55.452 333.2 7.2 330 13.1
2009-04-23 11:35:00 51°14.193 2°55.341 327.9 7.9 324 13.2
2009-04-23 11:35:59 51°14.291 2°55.191 315.5 8.6 311 13.1
2009-04-23 11:36:59 51°14.385 2°55.006 312.2 9.3 313 12.8
2009-04-23 11:38:00 51°14.433 2°54.791 267.6 8.7 269 13.1
2009-04-23 11:39:00 51°14.382 2°54.563 242.2 9.8 240 12.6
2009-04-23 11:40:00 51°14.298 2°54.332 240.5 10.2 239 11.7
2009-04-23 11:41:00 51°14.214 2°54.094 241.8 10.2 240 11.6
2009-04-23 11:42:00 51°14.126 2°53.862 239 10.2 238 11.4
2009-04-23 11:43:00 51°14.036 2°53.634 239.8 10.1 235 11.6
2009-04-23 11:44:00 51°13.949 2°53.405 240.3 10.1 237 11.7
2009-04-23 11:45:00 51°13.863 2°53.175 240.8 10.1 238 11.9
2009-04-23 11:46:00 51°13.777 2°52.946 240.7 10.1 237 12.1
2009-04-23 11:47:00 51°13.692 2°52.715 241.4 10.2 238 12.2
2009-04-23 11:48:00 51°13.609 2°52.479 242.9 10.3 241 12.4
2009-04-23 11:49:00 51°13.524 2°52.241 240.4 10.3 238 12.5
2009-04-23 11:50:00 51°13.433 2°52.007 239.8 10.5 239 12.4
2009-04-23 11:51:00 51°13.342 2°51.77 241.8 10.5 240 12.5
2009-04-23 11:51:59 51°13.256 2°51.535 240.9 10.4 237 12.6
2009-04-23 11:52:59 51°13.165 2°51.301 240.2 10.3 238 12.6
2009-04-23 11:54:00 51°13.072 2°51.065 241 10.4 237 12.6
2009-04-23 11:55:00 51°12.984 2°50.827 243.1 10.5 240 12.6
2009-04-23 11:56:00 51°12.898 2°50.583 242.8 10.6 240 12.7
2009-04-23 11:57:00 51°12.807 2°50.342 240.2 10.6 237 12.7
2009-04-23 11:58:00 51°12.712 2°50.103 240.3 10.8 239 12.5
2009-04-23 11:59:00 51°12.618 2°49.864 240.9 10.6 236 12.5
2009-04-23 12:00:00 51°12.548 2°49.606 252 10.6 251 12.7
2009-04-23 12:01:00 51°12.495 2°49.338 254.1 10.7 254 13
2009-04-23 12:02:00 51°12.442 2°49.068 253 10.7 253 13.2
2009-04-23 12:03:00 51°12.386 2°48.8 252.3 10.6 251 13.6
2009-04-23 12:04:00 51°12.327 2°48.535 249.5 10.6 249 13.9
2009-04-23 12:05:00 51°12.264 2°48.275 250.7 10.5 250 14.2
2009-04-23 12:06:00 51°12.205 2°48.012 251.2 10.5 251 14.4
2009-04-23 12:07:00 51°12.15 2°47.748 252.7 10.5 253 14.7
2009-04-23 12:08:00 51°12.097 2°47.498 252.3 7.8 252 14.9
2009-04-23 12:09:00 51°12.057 2°47.395 212 3.2 193 15
2009-04-23 12:10:00 51°12.004 2°47.392 200.4 3.2 184 14.6
2009-04-23 12:11:00 51°11.951 2°47.369 215.4 3.1 204 14.2
2009-04-23 12:12:00 51°11.913 2°47.327 229 2.7 222 14
2009-04-23 12:13:00 51°11.873 2°47.268 227.3 3.7 223 13.7
2009-04-23 12:14:00 51°11.828 2°47.201 226.6 3.7 222 13.5
2009-04-23 12:15:00 51°11.784 2°47.134 229.9 3.6 227 13.3
2009-04-23 12:16:00 51°11.748 2°47.063 234.8 3.4 233 13.1
2009-04-23 12:17:00 51°11.715 2°46.991 235.8 3.3 233 12.9
2009-04-23 12:18:00 51°11.682 2°46.919 234.8 3.4 233 12.8
2009-04-23 12:19:00 51°11.649 2°46.848 234.8 3.2 234 12.6
2009-04-23 12:20:00 51°11.618 2°46.785 235.2 2.9 233 12.5
2009-04-23 12:21:00 51°11.589 2°46.724 234.5 2.9 233 12.3
2009-04-23 12:22:00 51°11.56 2°46.664 234.3 2.9 231 12.2
2009-04-23 12:23:00 51°11.531 2°46.604 234.5 2.8 233 12.1
2009-04-23 12:24:00 51°11.502 2°46.544 233.8 2.9 234 11.9
2009-04-23 12:25:00 51°11.471 2°46.485 234.6 2.9 230 11.8
2009-04-23 12:26:00 51°11.441 2°46.426 234.1 2.9 228 11.7
2009-04-23 12:27:00 51°11.411 2°46.368 235 2.8 231 11.6
2009-04-23 12:28:00 51°11.38 2°46.31 233.5 2.8 228 11.4
2009-04-23 12:29:00 51°11.349 2°46.253 233.2 2.8 229 11.3
2009-04-23 12:30:00 51°11.319 2°46.195 234.5 2.9 231 11.2
2009-04-23 12:31:00 51°11.291 2°46.133 242.8 2.9 240 11.1
2009-04-23 12:32:00 51°11.274 2°46.062 254.7 2.9 256 11.1
2009-04-23 12:33:00 51°11.27 2°45.984 268.5 3 275 11.3
2009-04-23 12:34:00 51°11.278 2°45.905 274.4 3.1 282 11.5
2009-04-23 12:35:00 51°11.287 2°45.825 273.5 3.1 279 11.8
2009-04-23 12:36:00 51°11.295 2°45.744 272.8 3.1 279 12.2
2009-04-23 12:37:00 51°11.301 2°45.665 269.1 3 275 12.5
2009-04-23 12:38:00 51°11.306 2°45.585 270.5 3 278 12.7
2009-04-23 12:39:00 51°11.311 2°45.505 267.9 3.1 274 12.9
2009-04-23 12:40:00 51°11.316 2°45.423 269.8 3.1 277 13.2
2009-04-23 12:41:00 51°11.322 2°45.341 269.2 3.1 276 13.4
2009-04-23 12:42:00 51°11.328 2°45.26 269.9 3.1 277 13.7
2009-04-23 12:43:00 51°11.336 2°45.18 270.1 3 280 13.8
2009-04-23 12:44:00 51°11.344 2°45.102 268.6 2.9 277 14.1
2009-04-23 12:45:00 51°11.349 2°45.026 268.2 2.9 275 14.2
2009-04-23 12:46:00 51°11.355 2°44.953 269.9 2.7 277 14.3
2009-04-23 12:47:00 51°11.362 2°44.882 271.2 2.7 282 14.4
2009-04-23 12:48:00 51°11.38 2°44.816 293.8 2.8 306 14.6
2009-04-23 12:49:00 51°11.409 2°44.778 316.1 1.9 333 14.8
2009-04-23 12:50:00 51°11.447 2°44.757 331.1 3.2 345 14.8
2009-04-23 12:51:00 51°11.518 2°44.749 358.5 4.8 11 14.9
2009-04-23 12:52:00 51°11.573 2°44.795 26.4 3.1 35 14.9
2009-04-23 12:53:00 51°11.619 2°44.856 39.2 4.7 45 15
2009-04-23 12:54:00 51°11.668 2°44.955 54.6 4.1 58 15
2009-04-23 12:55:00 51°11.694 2°45.04 67.9 3.1 67 14.9
2009-04-23 12:56:00 51°11.711 2°45.108 68 2.5 68 14.9
2009-04-23 12:57:00 51°11.725 2°45.163 67.5 2 71 14.9
2009-04-23 12:58:00 51°11.735 2°45.209 66.3 1.8 70 15
2009-04-23 12:59:00 51°11.744 2°45.25 66.1 1.5 71 14.9
2009-04-23 13:00:00 51°11.753 2°45.29 69.3 2.2 73 14.9
2009-04-23 13:01:00 51°11.758 2°45.387 103.4 4.9 95 14.9
2009-04-23 13:02:00 51°11.744 2°45.542 103.1 6.6 99 14.9
2009-04-23 13:03:00 51°11.725 2°45.723 102.6 7.1 100 14.9
2009-04-23 13:04:00 51°11.711 2°45.909 97.4 7.1 94 14.7
2009-04-23 13:05:00 51°11.709 2°46.098 91.6 7.2 89 14.5
2009-04-23 13:06:00 51°11.708 2°46.29 94.4 7.2 91 14.4
2009-04-23 13:07:00 51°11.706 2°46.48 93.8 7.2 92 13.9
2009-04-23 13:08:00 51°11.707 2°46.668 88.8 7.1 86 13.3
2009-04-23 13:09:00 51°11.726 2°46.852 80.5 7.1 78 12.8
2009-04-23 13:10:00 51°11.749 2°47.037 81.2 7.1 80 12.5
2009-04-23 13:11:00 51°11.769 2°47.22 81.8 7 80 12.2
2009-04-23 13:12:00 51°11.788 2°47.405 82 7.1 80 11.8
2009-04-23 13:13:00 51°11.808 2°47.59 81.4 7.1 79 11.4
2009-04-23 13:14:00 51°11.836 2°47.772 73.9 7.1 73 11.3
2009-04-23 13:15:00 51°11.871 2°47.952 74.5 7.1 73 11.2
2009-04-23 13:16:00 51°11.904 2°48.134 74.8 7.1 74 11
2009-04-23 13:17:00 51°11.945 2°48.31 67 7.1 66 10.9
2009-04-23 13:18:00 51°11.993 2°48.482 67.2 7.1 66 10.9
2009-04-23 13:19:00 51°12.041 2°48.654 67.2 7.1 66 10.8
2009-04-23 13:20:00 51°12.086 2°48.828 68.3 7.1 67 10.7
2009-04-23 13:21:00 51°12.131 2°49.004 68.2 7.1 67 10.7
2009-04-23 13:22:00 51°12.175 2°49.179 68.3 7.1 68 10.6
2009-04-23 13:23:00 51°12.226 2°49.349 61.4 7 60 10.6
2009-04-23 13:24:00 51°12.285 2°49.511 60.6 7.1 60 10.7
2009-04-23 13:25:00 51°12.343 2°49.674 61.1 7.1 60 10.7
2009-04-23 13:26:00 51°12.404 2°49.836 57.3 7.1 57 10.7
2009-04-23 13:27:00 51°12.47 2°49.99 55.4 7.1 55 10.7
2009-04-23 13:28:00 51°12.535 2°50.144 56 7 56 10.8
2009-04-23 13:29:00 51°12.601 2°50.298 55.9 7 56 10.8
2009-04-23 13:30:00 51°12.667 2°50.452 56.3 7 57 10.8
2009-04-23 13:31:00 51°12.732 2°50.606 56.1 7 56 10.9
2009-04-23 13:32:00 51°12.797 2°50.76 55.6 7 55 10.9
2009-04-23 13:33:00 51°12.863 2°50.914 56.2 7 56 10.9
2009-04-23 13:34:00 51°12.928 2°51.07 55.9 7.1 56 11
2009-04-23 13:35:00 51°12.994 2°51.225 56.2 7 56 11
2009-04-23 13:36:00 51°13.059 2°51.379 56 7 56 10.9
2009-04-23 13:37:00 51°13.125 2°51.533 56.4 7 56 10.9
2009-04-23 13:38:00 51°13.191 2°51.686 55.8 7 56 11
2009-04-23 13:39:00 51°13.257 2°51.839 56.3 7 56 11
2009-04-23 13:40:00 51°13.322 2°51.993 56 7 55 11
2009-04-23 13:41:00 51°13.388 2°52.146 56.6 7.1 55 11
2009-04-23 13:42:00 51°13.455 2°52.3 56 7 55 11
2009-04-23 13:43:00 51°13.525 2°52.464 56.6 7.8 55 11
2009-04-23 13:44:00 51°13.6 2°52.635 56.6 7.9 55 10.9
2009-04-23 13:45:00 51°13.676 2°52.808 56 8 55 10.9
2009-04-23 13:46:00 51°13.755 2°52.978 55.8 8 55 10.8
2009-04-23 13:47:00 51°13.83 2°53.152 57.1 8 55 10.6
2009-04-23 13:48:00 51°13.906 2°53.326 56.9 8 55 10.5
2009-04-23 13:49:00 51°13.981 2°53.502 64 7.9 61 10.5
2009-04-23 13:50:00 51°14.05 2°53.684 61.1 8.1 60 10.3
2009-04-23 13:51:00 51°14.12 2°53.865 57.4 8 56 10.3
2009-04-23 13:52:00 51°14.195 2°54.042 57.8 8.1 56 10.2
2009-04-23 13:53:00 51°14.266 2°54.223 63.3 8 61 10.3
2009-04-23 13:54:00 51°14.325 2°54.415 68.3 8.1 65 10.4
2009-04-23 13:55:00 51°14.372 2°54.612 74.8 7.8 73 11.1
2009-04-23 13:56:00 51°14.38 2°54.811 99.6 7.4 98 11.2
2009-04-23 13:57:00 51°14.35 2°55 111.1 7.8 112 8.9
2009-04-23 13:58:00 51°14.287 2°55.182 123.2 7.6 122 10.9
2009-04-23 13:59:00 51°14.206 2°55.327 136.5 7.1 138 11.6
2009-04-23 14:00:00 51°14.11 2°55.426 154 6.9 154 11.6
2009-04-23 14:01:00 51°14.004 2°55.504 157.2 7 157 11.6
2009-04-23 14:02:00 51°13.897 2°55.58 156.5 7.1 156 11.6
2009-04-23 14:03:00 51°13.801 2°55.654 150.3 5.6 148 11.3
2009-04-23 14:04:00 51°13.736 2°55.748 132.9 5 132 12.4
2009-04-23 14:05:00 51°13.688 2°55.847 124.2 4.5 122 9.6
2009-04-23 14:06:00 51°13.668 2°55.932 104.7 2.2 105 7.8
2009-04-23 14:07:03 51°13.662 2°55.957 114.9 0.3 124 6.4